ENVA/TRD METAR and TAF weather

Enter ICAO airport designator
Station Type Date Time Source
ENVA METAR 2018/10/22 15:50 UTC NOAA

ENVA 221550Z 22011KT 9999 FEW017 SCT020CB BKN030 05/02 Q1006 TEMPO 4000 SHRAGS BKN014CB RMK WIND 670FT 23014KT


Station Type Date Time Source
ENVA Decoded METAR 2018/10/22 15:50 UTC NOAA

Trondheim / Vaernes, Norway (ENVA) 63-28N 010-56E 17M
Oct 22, 2018 - 11:50 AM EDT / 2018.10.22 1550 UTC
Wind: from the SW (220 degrees) at 13 MPH (11 KT):0
Visibility: greater than 7 mile(s):0
Sky conditions: mostly cloudy
Weather: Cumulonimbus clouds observed
Temperature: 41 F (5 C)
Dew Point: 35 F (2 C)
Relative Humidity: 80%
Pressure (altimeter): 29.71 in. Hg (1006 hPa)
ob: ENVA 221550Z 22011KT 9999 FEW017 SCT020CB BKN030 05/02 Q1006 TEMPO 4000 SHRAGS BKN014CB RMK WIND 670FT 23014KT
cycle: 16

Station Type Date Time Source
ENVA TAF 2018/10/22 12:57 UTC NOAA

TAF ENVA 221100Z 2212/2312 24015KT 9999 -SHRA FEW012TCU BKN030
TEMPO 2212/2215 27025G35KT 4000 SHRAGS BKN012CB
BECMG 2216/2218 16008KT
TEMPO 2302/2312 4000 SHRA BKN009 SCT020CB
BECMG 2303/2306 28025G35KT


Example: see airport list